Time;durP1;ratioP1;P1;durP2;ratioP2;P2;SDS_P1;SDS_P2;PMS_P1;PMS_P2;Temp;Humidity;BMP_temperature;BMP_pressure;BME280_temperature;BME280_humidity;BME280_pressure;Samples;Min_cycle;Max_cycle;Signal;HPM_P1;HPM_P2
2023/10/20 00:00:06;;;;;;;20.27;8.20;;;;;;;5.69;100.00;99584.13;7395614;19;20411;-40
2023/10/20 00:02:36;;;;;;;5.43;3.20;;;;;;;5.69;100.00;99581.56;7370878;19;20648;-40
2023/10/20 00:05:06;;;;;;;5.53;3.23;;;;;;;5.70;100.00;99585.88;7395023;19;20392;-40
2023/10/20 00:07:39;;;;;;;5.43;3.40;;;;;;;5.72;100.00;99585.94;7372771;19;20427;-41
2023/10/20 00:10:11;;;;;;;7.07;3.87;;;;;;;5.66;100.00;99578.88;7395516;19;20843;-40
2023/10/20 00:12:41;;;;;;;7.23;3.70;;;;;;;5.63;100.00;99571.94;7371888;19;20454;-41
2023/10/20 00:15:13;;;;;;;10.77;5.37;;;;;;;5.66;100.00;99566.94;7397012;19;20395;-40
2023/10/20 00:17:44;;;;;;;7.53;4.03;;;;;;;5.67;100.00;99567.81;7369562;19;20804;-40
2023/10/20 00:20:14;;;;;;;3.60;2.13;;;;;;;5.62;100.00;99551.41;7376113;19;20411;-41
2023/10/20 00:22:46;;;;;;;5.90;3.07;;;;;;;5.64;100.00;99542.97;7394003;19;20451;-41
2023/10/20 00:25:17;;;;;;;5.90;3.40;;;;;;;5.68;100.00;99541.41;7372209;19;20495;-41
2023/10/20 00:27:46;;;;;;;12.37;5.40;;;;;;;5.67;100.00;99545.69;7394328;19;20781;-41
2023/10/20 00:30:16;;;;;;;7.27;3.97;;;;;;;5.64;100.00;99554.91;7372012;19;20407;-41
2023/10/20 00:32:45;;;;;;;4.97;3.33;;;;;;;5.62;100.00;99546.28;7391707;19;20454;-42
2023/10/20 00:35:15;;;;;;;5.60;3.40;;;;;;;5.61;100.00;99541.97;7370786;19;20412;-42
2023/10/20 00:37:47;;;;;;;22.07;9.13;;;;;;;5.57;100.00;99537.53;7393105;19;20782;-41
2023/10/20 00:40:19;;;;;;;4.80;2.83;;;;;;;5.57;100.00;99542.66;7370591;19;20408;-41
2023/10/20 00:42:49;;;;;;;8.57;4.43;;;;;;;5.58;100.00;99541.84;7390673;19;20452;-40
2023/10/20 00:45:19;;;;;;;7.50;3.33;;;;;;;5.60;100.00;99540.22;7371638;19;20471;-41
2023/10/20 00:47:48;;;;;;;13.80;6.60;;;;;;;5.60;100.00;99532.56;7392086;19;20483;-40
2023/10/20 00:50:18;;;;;;;27.33;11.90;;;;;;;5.56;100.00;99518.75;7371950;19;20411;-42
2023/10/20 00:52:52;;;;;;;6.90;3.97;;;;;;;5.56;100.00;99516.19;7391839;19;20511;-43
2023/10/20 00:55:23;;;;;;;13.20;6.23;;;;;;;5.53;100.00;99499.03;7371810;19;20411;-41
2023/10/20 00:57:53;;;;;;;9.17;4.53;;;;;;;5.48;100.00;99492.84;7392460;19;20418;-40
2023/10/20 01:00:23;;;;;;;9.20;4.80;;;;;;;5.46;100.00;99486.78;7370095;19;20412;-42
2023/10/20 01:02:54;;;;;;;6.80;3.93;;;;;;;5.51;100.00;99485.31;7392265;19;20446;-41
2023/10/20 01:05:24;;;;;;;6.50;4.07;;;;;;;5.45;100.00;99479.94;7371925;19;20422;-40
2023/10/20 01:07:57;;;;;;;6.67;4.37;;;;;;;5.49;100.00;99463.88;7391911;19;20403;-41
2023/10/20 01:10:29;;;;;;;10.70;4.80;;;;;;;5.46;100.00;99458.66;7373061;19;20415;-40
2023/10/20 01:12:59;;;;;;;10.93;5.50;;;;;;;5.44;100.00;99462.81;7386492;19;21054;-41
2023/10/20 01:15:29;;;;;;;6.97;4.10;;;;;;;5.46;100.00;99475.69;7369258;19;20969;-41
2023/10/20 01:17:59;;;;;;;8.50;4.83;;;;;;;5.44;100.00;99461.97;7390175;19;20408;-42
2023/10/20 01:20:29;;;;;;;39.07;16.63;;;;;;;5.47;100.00;99460.41;7369324;19;20400;-40
2023/10/20 01:23:01;;;;;;;32.27;14.90;;;;;;;5.42;100.00;99453.34;7392453;19;20527;-43
2023/10/20 01:25:33;;;;;;;8.70;4.67;;;;;;;5.36;100.00;99459.06;7370863;19;20431;-41
2023/10/20 01:28:03;;;;;;;10.13;6.13;;;;;;;5.37;100.00;99471.03;7391435;19;20400;-41
2023/10/20 01:30:33;;;;;;;14.57;6.97;;;;;;;5.33;100.00;99471.75;7368815;19;20388;-41
2023/10/20 01:33:02;;;;;;;13.30;6.53;;;;;;;5.34;100.00;99460.69;7391376;19;20464;-40
2023/10/20 01:35:32;;;;;;;11.73;6.00;;;;;;;5.33;100.00;99476.84;7368709;19;20400;-41
2023/10/20 01:38:03;;;;;;;9.63;5.70;;;;;;;5.31;100.00;99483.56;7392590;19;20420;-40
2023/10/20 01:40:36;;;;;;;14.43;6.50;;;;;;;5.32;100.00;99478.53;7366865;19;21811;-42
2023/10/20 01:43:06;;;;;;;12.30;6.37;;;;;;;5.28;100.00;99479.19;7391071;19;20506;-40
2023/10/20 01:45:36;;;;;;;12.87;6.73;;;;;;;5.30;100.00;99476.72;7369053;19;20438;-40
2023/10/20 01:48:06;;;;;;;10.20;6.03;;;;;;;5.35;100.00;99462.44;7391642;19;20484;-40
2023/10/20 01:50:35;;;;;;;16.70;8.70;;;;;;;5.35;100.00;99462.44;7369874;19;20403;-40
2023/10/20 01:53:05;;;;;;;34.97;15.13;;;;;;;5.33;100.00;99453.84;7391197;19;20995;-40
2023/10/20 01:55:39;;;;;;;10.57;6.10;;;;;;;5.30;100.00;99433.22;7369021;19;20395;-40
2023/10/20 01:58:09;;;;;;;26.93;12.13;;;;;;;5.25;100.00;99436.50;7391519;19;20414;-41
2023/10/20 02:00:39;;;;;;;11.33;6.63;;;;;;;5.27;100.00;99432.31;7368598;19;20407;-40
2023/10/20 02:03:10;;;;;;;42.73;17.37;;;;;;;5.31;100.00;99434.97;7390905;19;20447;-41
2023/10/20 02:05:40;;;;;;;14.03;6.83;;;;;;;5.29;100.00;99446.84;7368670;19;20399;-41
2023/10/20 02:08:10;;;;;;;24.83;11.10;;;;;;;5.27;100.00;99434.84;7390670;19;20486;-42
2023/10/20 02:10:42;;;;;;;9.30;6.00;;;;;;;5.25;100.00;99433.94;7368465;19;20420;-43
2023/10/20 02:13:12;;;;;;;14.83;7.27;;;;;;;5.24;100.00;99433.84;7390630;19;20443;-43
2023/10/20 02:15:48;;;;;;;18.47;9.23;;;;;;;5.23;100.00;99427.00;7368255;19;20423;-40
2023/10/20 02:18:18;;;;;;;11.13;6.10;;;;;;;5.22;100.00;99427.78;7393980;19;20413;-40
2023/10/20 02:20:47;;;;;;;22.97;10.17;;;;;;;5.23;100.00;99415.06;7374580;19;20470;-41
2023/10/20 02:23:17;;;;;;;14.77;7.77;;;;;;;5.23;100.00;99409.09;7396639;19;20435;-41
2023/10/20 02:25:59;;;;;;;15.10;8.13;;;;;;;5.19;100.00;99403.00;7374947;19;20391;-40
2023/10/20 02:28:29;;;;;;;18.67;9.03;;;;;;;5.11;100.00;99397.53;7396044;19;20419;-40
2023/10/20 02:30:59;;;;;;;23.33;9.73;;;;;;;5.08;100.00;99402.50;7373979;19;20926;-40
2023/10/20 02:33:29;;;;;;;12.77;6.50;;;;;;;5.13;100.00;99403.59;7397666;19;20526;-40
2023/10/20 02:35:58;;;;;;;14.60;6.87;;;;;;;5.09;100.00;99394.03;7374614;19;20418;-41
2023/10/20 02:38:28;;;;;;;10.13;6.27;;;;;;;5.10;100.00;99385.56;7397500;19;20429;-40
2023/10/20 02:41:03;;;;;;;12.93;7.63;;;;;;;5.12;100.00;99381.38;7372179;19;20985;-40
2023/10/20 02:43:34;;;;;;;10.63;5.83;;;;;;;5.07;100.00;99379.47;7396477;19;20909;-40
2023/10/20 02:46:03;;;;;;;29.33;11.93;;;;;;;5.05;100.00;99370.81;7376045;19;20876;-41
2023/10/20 02:48:33;;;;;;;10.60;5.50;;;;;;;5.05;100.00;99365.72;7398791;19;20428;-41
2023/10/20 02:51:10;;;;;;;17.60;6.67;;;;;;;5.07;100.00;99369.22;7373258;19;21025;-41
2023/10/20 02:53:41;;;;;;;15.63;7.50;;;;;;;5.05;100.00;99375.94;7396179;19;20514;-42
2023/10/20 02:56:17;;;;;;;11.97;6.47;;;;;;;5.04;100.00;99382.75;7374161;19;20412;-40
2023/10/20 02:58:47;;;;;;;11.70;6.03;;;;;;;5.05;100.00;99387.06;7396028;19;20407;-41
2023/10/20 03:01:18;;;;;;;11.57;6.07;;;;;;;5.04;100.00;99386.97;7373941;19;20403;-43
2023/10/20 03:03:48;;;;;;;11.80;6.30;;;;;;;4.99;100.00;99382.53;7395505;19;20984;-40
2023/10/20 03:06:19;;;;;;;15.93;7.63;;;;;;;4.99;100.00;99387.66;7374472;19;20750;-40
2023/10/20 03:08:50;;;;;;;11.40;5.83;;;;;;;5.03;100.00;99392.91;7397211;19;20411;-41
2023/10/20 03:11:22;;;;;;;9.73;5.57;;;;;;;5.02;100.00;99391.16;7374438;19;20391;-39
2023/10/20 03:13:52;;;;;;;27.87;10.83;;;;;;;5.07;100.00;99390.53;7406252;19;20450;-40
2023/10/20 03:16:21;;;;;;;17.53;8.00;;;;;;;5.02;100.00;99386.91;7383611;19;20407;-40
2023/10/20 03:18:51;;;;;;;20.60;9.43;;;;;;;5.04;100.00;99394.66;7406330;19;20407;-40
2023/10/20 03:21:21;;;;;;;11.83;6.57;;;;;;;4.98;100.00;99401.25;7383931;19;20503;-41
2023/10/20 03:23:51;;;;;;;10.97;6.40;;;;;;;4.97;100.00;99386.72;7405204;19;20440;-40
2023/10/20 03:26:23;;;;;;;16.83;7.67;;;;;;;5.00;100.00;99384.31;7384755;19;20408;-39
2023/10/20 03:28:52;;;;;;;20.17;9.80;;;;;;;5.02;100.00;99388.63;7407260;19;20495;-44
2023/10/20 03:31:22;;;;;;;11.33;5.70;;;;;;;4.97;100.00;99384.16;7381741;19;20471;-40
2023/10/20 03:33:52;;;;;;;25.97;13.37;;;;;;;5.04;100.00;99385.31;7406208;19;20782;-40
2023/10/20 03:36:21;;;;;;;17.07;7.73;;;;;;;5.00;100.00;99383.44;7383911;19;20428;-40
2023/10/20 03:38:52;;;;;;;9.50;5.27;;;;;;;4.92;100.00;99392.47;7405981;19;20479;-40
2023/10/20 03:41:25;;;;;;;10.37;5.70;;;;;;;4.90;100.00;99394.94;7381830;19;20410;-40
2023/10/20 03:43:55;;;;;;;9.47;5.60;;;;;;;4.96;100.00;99389.22;7405901;19;20439;-41
2023/10/20 03:46:26;;;;;;;15.07;7.07;;;;;;;4.97;100.00;99385.88;7384620;19;20440;-40
2023/10/20 03:48:57;;;;;;;13.20;6.20;;;;;;;4.98;100.00;99391.03;7407802;19;20403;-40
2023/10/20 03:51:27;;;;;;;20.93;9.03;;;;;;;4.93;100.00;99381.44;7382559;19;20798;-41
2023/10/20 03:53:56;;;;;;;20.43;9.07;;;;;;;4.95;100.00;99374.69;7406518;19;20458;-41
2023/10/20 03:56:28;;;;;;;25.80;11.57;;;;;;;4.93;100.00;99364.38;7374149;19;20439;-41
2023/10/20 03:58:58;;;;;;;11.20;5.87;;;;;;;4.86;100.00;99370.94;7397875;19;20420;-40
2023/10/20 04:01:28;;;;;;;11.30;6.00;;;;;;;4.85;100.00;99371.75;7371966;19;20426;-40
2023/10/20 04:03:57;;;;;;;8.70;4.87;;;;;;;4.82;100.00;99365.63;7395095;19;20814;-41
2023/10/20 04:06:27;;;;;;;15.73;7.43;;;;;;;4.82;100.00;99347.75;7372001;19;20434;-40
2023/10/20 04:08:57;;;;;;;12.83;6.10;;;;;;;4.84;100.00;99361.47;7395284;19;20418;-40
2023/10/20 04:11:30;;;;;;;14.00;7.87;;;;;;;4.89;100.00;99359.97;7371019;19;21161;-40
2023/10/20 04:14:00;;;;;;;18.27;7.40;;;;;;;4.84;100.00;99359.78;7394888;19;20439;-41
2023/10/20 04:16:31;;;;;;;13.20;7.27;;;;;;;4.81;100.00;99356.19;7371979;19;20423;-40
2023/10/20 04:19:01;;;;;;;13.27;6.87;;;;;;;4.83;100.00;99369.94;7394757;19;20411;-41
2023/10/20 04:21:32;;;;;;;12.33;6.43;;;;;;;4.80;100.00;99359.56;7369327;19;20423;-41
2023/10/20 04:24:01;;;;;;;9.20;4.97;;;;;;;4.82;100.00;99357.97;7394166;19;20450;-41
2023/10/20 04:26:35;;;;;;;10.20;6.10;;;;;;;4.79;100.00;99357.81;7369314;19;20419;-41
2023/10/20 04:29:23;;;;;;;33.03;13.80;;;;;;;4.79;100.00;99361.28;7394456;19;20946;-40
2023/10/20 04:51:28;;;;;;;10.00;5.70;;;;;;;4.67;100.00;99324.97;7369569;19;20474;-40
2023/10/20 04:53:55;;;;;;;12.20;6.00;;;;;;;4.65;100.00;99319.78;7393296;19;20987;-41
2023/10/20 04:57:00;;;;;;;10.20;5.00;;;;;;;4.62;100.00;99319.66;7371621;19;20418;-40
2023/10/20 04:59:33;;;;;;;8.67;4.70;;;;;;;4.66;100.00;99305.34;7395203;19;20415;-40
2023/10/20 05:02:09;;;;;;;7.73;4.27;;;;;;;4.59;100.00;99296.53;7369471;19;20794;-40
2023/10/20 05:04:40;;;;;;;10.67;4.57;;;;;;;4.58;100.00;99290.53;7393173;19;20424;-40
2023/10/20 05:07:12;;;;;;;7.53;4.57;;;;;;;4.61;100.00;99310.22;7370364;19;20979;-41
2023/10/20 05:09:44;;;;;;;9.37;4.70;;;;;;;4.63;100.00;99300.97;7393104;19;20407;-40
2023/10/20 05:12:14;;;;;;;19.87;7.67;;;;;;;4.61;100.00;99305.13;7368674;19;21081;-40
2023/10/20 05:14:47;;;;;;;7.90;4.40;;;;;;;4.56;100.00;99293.88;7393304;19;20414;-41
2023/10/20 05:17:18;;;;;;;11.27;5.80;;;;;;;4.60;100.00;99295.72;7369491;19;20423;-40
2023/10/20 05:19:49;;;;;;;7.33;4.50;;;;;;;4.56;100.00;99278.53;7393145;19;20432;-40
2023/10/20 05:22:19;;;;;;;16.40;6.63;;;;;;;4.56;100.00;99293.88;7368637;19;20546;-41
2023/10/20 05:24:48;;;;;;;9.37;5.17;;;;;;;4.50;100.00;99279.13;7394318;19;20418;-41
2023/10/20 05:27:18;;;;;;;10.23;5.50;;;;;;;4.54;100.00;99280.13;7369492;19;20433;-41
2023/10/20 05:29:50;;;;;;;23.03;9.27;;;;;;;4.55;100.00;99275.09;7394527;19;20406;-41
2023/10/20 05:32:20;;;;;;;16.83;5.30;;;;;;;4.54;100.00;99280.13;7368330;19;20475;-40
2023/10/20 05:34:53;;;;;;;12.10;6.03;;;;;;;4.53;100.00;99288.59;7394300;19;20399;-39
2023/10/20 05:37:24;;;;;;;19.13;8.03;;;;;;;4.58;100.00;99287.97;7369543;19;20466;-40
2023/10/20 05:39:53;;;;;;;16.10;7.40;;;;;;;4.63;100.00;99300.97;7392529;19;20949;-40
2023/10/20 05:42:23;;;;;;;9.03;5.40;;;;;;;4.63;100.00;99305.19;7365891;19;20459;-40
2023/10/20 05:45:03;;;;;;;18.20;8.80;;;;;;;4.70;100.00;99302.97;7392284;19;20415;-40
2023/10/20 05:47:32;;;;;;;13.10;6.30;;;;;;;4.71;100.00;99317.50;7370651;19;20797;-40
2023/10/20 05:50:02;;;;;;;12.60;5.87;;;;;;;4.70;100.00;99318.31;7392428;19;20767;-40
2023/10/20 05:52:34;;;;;;;8.30;4.97;;;;;;;4.72;100.00;99336.25;7370521;19;20537;-41
2023/10/20 05:55:03;;;;;;;9.67;4.70;;;;;;;4.71;100.00;99327.72;7402060;19;20813;-41
2023/10/20 05:57:33;;;;;;;8.70;5.00;;;;;;;4.73;100.00;99318.41;7376445;19;20990;-40
2023/10/20 06:00:08;;;;;;;10.70;5.57;;;;;;;4.70;100.00;99310.63;7399957;19;20420;-40
2023/10/20 06:02:37;;;;;;;13.40;6.87;;;;;;;4.77;100.00;99310.91;7375246;19;20462;-40
2023/10/20 06:05:09;;;;;;;9.93;4.80;;;;;;;4.78;100.00;99300.75;7398533;19;20411;-41
2023/10/20 06:07:39;;;;;;;10.97;5.57;;;;;;;4.77;100.00;99298.13;7377164;19;20786;-40
2023/10/20 06:10:11;;;;;;;11.83;4.93;;;;;;;4.74;100.00;99303.97;7398727;19;20399;-43
2023/10/20 06:12:41;;;;;;;13.00;5.50;;;;;;;4.77;100.00;99308.34;7375696;19;20526;-40
2023/10/20 06:15:15;;;;;;;7.17;4.33;;;;;;;4.73;100.00;99289.47;7398945;19;20411;-40
2023/10/20 06:17:45;;;;;;;14.50;7.83;;;;;;;4.73;100.00;99297.97;7376849;19;20438;-40
2023/10/20 06:20:15;;;;;;;10.20;5.00;;;;;;;4.73;100.00;99290.31;7376038;19;20416;-39
2023/10/20 06:22:44;;;;;;;8.47;5.03;;;;;;;4.69;100.00;99290.13;7397027;19;20473;-41
2023/10/20 06:25:14;;;;;;;11.53;5.47;;;;;;;4.70;100.00;99290.19;7379661;19;20789;-40
2023/10/20 06:27:45;;;;;;;9.23;5.10;;;;;;;4.71;100.00;99302.16;7400697;19;20417;-40
2023/10/20 06:30:19;;;;;;;8.73;4.93;;;;;;;4.71;100.00;99321.72;7376313;19;20375;-39
2023/10/20 06:32:56;;;;;;;12.97;5.63;;;;;;;4.71;100.00;99320.03;7398709;19;20474;-39
2023/10/20 06:35:32;;;;;;;18.43;8.53;;;;;;;4.67;100.00;99328.38;7375696;19;20407;-40
2023/10/20 06:38:17;;;;;;;8.90;4.70;;;;;;;4.67;100.00;99310.50;7396614;19;20403;-41
2023/10/20 06:40:47;;;;;;;21.70;10.27;;;;;;;4.67;100.00;99305.38;7372935;19;20763;-40
2023/10/20 06:43:19;;;;;;;28.97;10.83;;;;;;;4.66;100.00;99285.75;7396447;19;20506;-41
2023/10/20 06:45:59;;;;;;;10.93;4.97;;;;;;;4.63;100.00;99277.97;7373993;19;20418;-41
2023/10/20 06:48:30;;;;;;;30.07;11.67;;;;;;;4.70;100.00;99271.44;7399437;19;20399;-43
2023/10/20 06:51:00;;;;;;;8.60;4.60;;;;;;;4.68;100.00;99268.78;7373085;19;21044;-41
2023/10/20 06:53:29;;;;;;;11.10;5.30;;;;;;;4.71;100.00;99266.38;7396583;19;21325;-39
2023/10/20 06:58:27;;;;;;;10.40;4.97;;;;;;;4.63;100.00;99249.88;7397629;19;20358;-41
2023/10/20 07:00:59;;;;;;;11.37;5.63;;;;;;;4.66;100.00;99233.81;7372808;19;20399;-40
2023/10/20 07:03:32;;;;;;;11.40;6.50;;;;;;;4.62;100.00;99226.81;7397618;19;20785;-41
2023/10/20 07:06:07;;;;;;;9.83;4.90;;;;;;;4.67;100.00;99226.19;7373513;19;21357;-40
2023/10/20 07:08:37;;;;;;;11.93;5.17;;;;;;;4.68;100.00;99227.06;7395078;19;20478;-41
2023/10/20 07:11:06;;;;;;;10.17;5.47;;;;;;;4.67;100.00;99222.78;7372826;19;20528;-40
2023/10/20 07:13:37;;;;;;;14.00;6.70;;;;;;;4.67;100.00;99223.63;7394573;19;20415;-40
2023/10/20 07:16:09;;;;;;;11.73;5.93;;;;;;;4.65;100.00;99203.94;7372232;19;20768;-40
2023/10/20 07:18:39;;;;;;;10.50;5.93;;;;;;;4.66;100.00;99208.25;7397150;19;20403;-41
2023/10/20 07:21:09;;;;;;;15.53;6.90;;;;;;;4.67;100.00;99185.28;7371939;19;20418;-40
2023/10/20 07:23:38;;;;;;;11.63;6.30;;;;;;;4.62;100.00;99189.38;7394796;19;20424;-40
2023/10/20 07:26:08;;;;;;;16.13;7.50;;;;;;;4.62;100.00;99194.47;7371713;19;20459;-41
2023/10/20 07:28:38;;;;;;;21.80;8.97;;;;;;;4.63;100.00;99193.66;7395710;19;20435;-40
2023/10/20 07:31:15;;;;;;;15.97;7.53;;;;;;;4.66;100.00;99190.38;7371815;19;20399;-42
2023/10/20 07:33:45;;;;;;;19.83;7.73;;;;;;;4.67;100.00;99198.06;7396935;19;20406;-41
2023/10/20 07:36:15;;;;;;;14.83;7.23;;;;;;;4.62;100.00;99206.38;7372363;19;20461;-40
2023/10/20 07:38:45;;;;;;;14.47;8.07;;;;;;;4.64;100.00;99209.84;7394385;19;20412;-40
2023/10/20 07:41:17;;;;;;;15.00;7.90;;;;;;;4.63;100.00;99203.88;7371041;19;20436;-42
2023/10/20 07:43:46;;;;;;;18.40;8.37;;;;;;;4.65;100.00;99202.25;7394274;19;20838;-40
2023/10/20 07:46:21;;;;;;;21.60;11.07;;;;;;;4.64;100.00;99180.06;7371451;19;20444;-40
2023/10/20 07:48:51;;;;;;;18.63;10.00;;;;;;;4.65;100.00;99184.38;7395036;19;20407;-40
2023/10/20 07:51:21;;;;;;;17.60;8.50;;;;;;;4.61;100.00;99184.19;7371592;19;20511;-40
2023/10/20 07:53:51;;;;;;;18.43;8.80;;;;;;;4.66;100.00;99188.66;7394901;19;20826;-41
2023/10/20 07:56:20;;;;;;;16.03;8.50;;;;;;;4.64;100.00;99181.75;7371220;19;20435;-40
2023/10/20 07:58:50;;;;;;;15.17;7.13;;;;;;;4.58;100.00;99190.06;7395085;19;20407;-39
2023/10/20 08:01:22;;;;;;;17.90;8.57;;;;;;;4.57;100.00;99199.38;7370954;19;20953;-39
2023/10/20 08:03:53;;;;;;;17.50;7.93;;;;;;;4.54;100.00;99183.94;7396852;19;20410;-40
2023/10/20 08:06:23;;;;;;;21.87;9.27;;;;;;;4.56;100.00;99199.34;7368814;19;20463;-41
2023/10/20 08:08:53;;;;;;;18.10;8.83;;;;;;;4.58;100.00;99184.94;7392606;19;20407;-43
2023/10/20 08:11:23;;;;;;;20.47;8.07;;;;;;;4.60;100.00;99188.41;7367917;19;20502;-41
2023/10/20 08:13:53;;;;;;;22.97;9.73;;;;;;;4.62;100.00;99191.03;7394129;19;20419;-43
2023/10/20 08:16:26;;;;;;;13.37;7.70;;;;;;;4.60;100.00;99185.88;7370614;19;20442;-40
2023/10/20 08:18:55;;;;;;;16.93;7.37;;;;;;;4.60;100.00;99183.31;7396129;19;20409;-41
2023/10/20 08:21:29;;;;;;;17.43;8.00;;;;;;;4.56;100.00;99181.47;7368055;19;20427;-40
2023/10/20 08:24:02;;;;;;;19.90;8.57;;;;;;;4.59;100.00;99176.47;7396484;19;20404;-40
2023/10/20 08:26:31;;;;;;;16.83;7.90;;;;;;;4.60;100.00;99178.19;7370931;19;20506;-41
2023/10/20 08:29:01;;;;;;;16.17;8.33;;;;;;;4.59;100.00;99182.47;7394559;19;20487;-40
2023/10/20 08:31:33;;;;;;;16.00;8.80;;;;;;;4.59;100.00;99184.13;7370272;19;20503;-40
2023/10/20 08:34:03;;;;;;;15.60;7.73;;;;;;;4.54;100.00;99173.72;7394177;19;20931;-41
2023/10/20 08:36:33;;;;;;;17.87;9.20;;;;;;;4.61;100.00;99161.19;7368595;19;20484;-41
2023/10/20 08:39:13;;;;;;;17.60;8.40;;;;;;;4.61;100.00;99169.72;7394409;19;20409;-40
2023/10/20 08:41:43;;;;;;;16.90;7.43;;;;;;;4.61;100.00;99174.84;7366793;19;20488;-40
2023/10/20 08:44:14;;;;;;;17.17;8.70;;;;;;;4.65;100.00;99181.81;7393593;19;20399;-41
2023/10/20 08:46:47;;;;;;;15.33;7.77;;;;;;;4.62;100.00;99168.94;7369582;19;20813;-41
2023/10/20 08:49:18;;;;;;;28.03;11.77;;;;;;;4.65;100.00;99150.28;7390630;19;21079;-41
2023/10/20 08:51:50;;;;;;;16.00;7.93;;;;;;;4.70;100.00;99149.66;7371908;19;20498;-41
2023/10/20 08:54:21;;;;;;;15.07;7.80;;;;;;;4.69;100.00;99160.69;7393932;19;20743;-40
2023/10/20 08:56:51;;;;;;;15.27;7.50;;;;;;;4.62;100.00;99155.28;7368776;19;20545;-41
2023/10/20 08:59:20;;;;;;;13.30;6.93;;;;;;;4.63;100.00;99154.47;7394082;19;20491;-41
2023/10/20 09:01:53;;;;;;;13.47;6.40;;;;;;;4.58;100.00;99169.63;7367883;19;20949;-40
2023/10/20 09:04:23;;;;;;;12.90;7.10;;;;;;;4.64;100.00;99164.75;7395564;19;20454;-41
2023/10/20 09:06:54;;;;;;;14.20;7.50;;;;;;;4.65;100.00;99145.16;7370064;19;20454;-40
2023/10/20 09:09:24;;;;;;;25.40;10.90;;;;;;;4.70;100.00;99144.56;7393373;19;21261;-41
2023/10/20 09:11:53;;;;;;;22.17;10.07;;;;;;;4.64;100.00;99138.31;7368790;19;20419;-41
2023/10/20 09:14:23;;;;;;;14.50;6.60;;;;;;;4.66;100.00;99111.16;7393326;19;20938;-40
2023/10/20 09:16:57;;;;;;;11.00;6.30;;;;;;;4.63;100.00;99111.91;7366413;19;20459;-41
2023/10/20 09:19:26;;;;;;;14.60;7.20;;;;;;;4.68;100.00;99112.09;7392976;19;20411;-40
2023/10/20 09:21:57;;;;;;;12.27;5.63;;;;;;;4.59;100.00;99100.72;7364782;19;20431;-41
2023/10/20 09:24:30;;;;;;;14.53;7.90;;;;;;;4.61;100.00;99100.75;7393423;19;20898;-41
2023/10/20 09:27:00;;;;;;;12.30;6.67;;;;;;;4.65;100.00;99094.94;7366390;19;20475;-41
2023/10/20 09:29:31;;;;;;;14.23;6.27;;;;;;;4.58;100.00;99092.97;7393498;19;20764;-40
2023/10/20 09:32:06;;;;;;;12.23;6.40;;;;;;;4.57;100.00;99093.78;7370159;19;20452;-41
2023/10/20 09:34:37;;;;;;;21.80;10.50;;;;;;;4.58;100.00;99087.88;7391171;19;20857;-40
2023/10/20 09:37:07;;;;;;;15.40;6.50;;;;;;;4.62;100.00;99096.53;7365208;19;20454;-41
2023/10/20 09:39:41;;;;;;;15.60;7.17;;;;;;;4.59;100.00;99105.81;7392543;19;20816;-41
2023/10/20 09:42:15;;;;;;;13.80;6.90;;;;;;;4.61;100.00;99098.19;7365948;19;20531;-41
2023/10/20 09:44:49;;;;;;;13.10;6.73;;;;;;;4.59;100.00;99105.81;7391871;19;20406;-40
2023/10/20 09:47:26;;;;;;;11.50;6.63;;;;;;;4.61;100.00;99107.56;7367146;19;20537;-41
2023/10/20 09:49:57;;;;;;;9.03;5.47;;;;;;;4.64;100.00;99117.88;7390042;19;20938;-40
2023/10/20 09:52:28;;;;;;;12.47;7.10;;;;;;;4.67;100.00;99118.88;7368978;19;20431;-42
2023/10/20 09:54:59;;;;;;;11.20;5.97;;;;;;;4.66;100.00;99116.28;7392657;19;20410;-41
2023/10/20 09:57:29;;;;;;;7.20;4.37;;;;;;;4.59;100.00;99115.16;7363742;19;20893;-40
2023/10/20 09:59:59;;;;;;;10.30;6.10;;;;;;;4.65;100.00;99125.63;7392733;19;20395;-41
2023/10/20 10:02:33;;;;;;;7.97;4.93;;;;;;;4.65;100.00;99119.63;7366796;19;20455;-41
2023/10/20 10:05:03;;;;;;;9.00;5.30;;;;;;;4.66;100.00;99140.13;7391277;19;20426;-41
2023/10/20 10:07:35;;;;;;;11.03;5.90;;;;;;;4.69;100.00;99127.50;7367779;19;20455;-40
2023/10/20 10:10:06;;;;;;;8.87;5.37;;;;;;;4.66;100.00;99137.56;7393449;19;21001;-43
2023/10/20 10:12:37;;;;;;;10.30;5.67;;;;;;;4.70;100.00;99151.34;7368434;19;20431;-40
2023/10/20 10:15:12;;;;;;;9.17;4.97;;;;;;;4.72;100.00;99158.25;7387279;19;20813;-41
2023/10/20 10:17:49;;;;;;;18.00;7.03;;;;;;;4.71;100.00;99159.06;7368446;19;20450;-41
2023/10/20 10:20:22;;;;;;;21.07;9.13;;;;;;;4.68;100.00;99174.25;7368894;19;20399;-41
2023/10/20 10:23:01;;;;;;;8.70;5.00;;;;;;;4.67;100.00;99169.97;7386232;19;20475;-41
2023/10/20 10:25:36;;;;;;;7.80;3.97;;;;;;;4.69;100.00;99186.25;7370378;19;20415;-40
2023/10/20 10:28:13;;;;;;;17.53;7.13;;;;;;;4.70;100.00;99182.88;7389854;19;20810;-42
2023/10/20 10:30:45;;;;;;;14.93;6.63;;;;;;;4.71;100.00;99199.94;7366163;19;20399;-41
2023/10/20 10:33:23;;;;;;;13.13;6.93;;;;;;;4.72;100.00;99199.13;7385864;19;20938;-40
2023/10/20 10:36:09;;;;;;;10.60;4.73;;;;;;;4.69;100.00;99211.81;7367116;19;20447;-40
2023/10/20 10:38:44;;;;;;;14.60;6.77;;;;;;;4.70;100.00;99205.88;7390147;19;20403;-41
2023/10/20 10:41:14;;;;;;;7.67;4.53;;;;;;;4.67;100.00;99225.31;7372101;19;20401;-42
2023/10/20 10:43:44;;;;;;;8.17;4.33;;;;;;;4.68;100.00;99233.03;7396958;19;20487;-41
2023/10/20 10:46:14;;;;;;;8.27;4.77;;;;;;;4.69;100.00;99234.81;7372818;19;20442;-42
2023/10/20 10:48:46;;;;;;;16.83;7.33;;;;;;;4.74;100.00;99224.75;7390097;19;20749;-43
2023/10/20 10:51:15;;;;;;;21.83;8.87;;;;;;;4.76;100.00;99228.25;7374868;19;20405;-40
2023/10/20 10:53:46;;;;;;;14.23;6.50;;;;;;;4.71;100.00;99227.16;7397015;19;20434;-43
2023/10/20 10:56:15;;;;;;;8.40;4.53;;;;;;;4.75;100.00;99238.38;7372237;19;20446;-41
2023/10/20 10:58:46;;;;;;;11.47;5.90;;;;;;;4.73;100.00;99241.75;7395876;19;20403;-40
2023/10/20 11:01:15;;;;;;;8.20;4.17;;;;;;;4.70;100.00;99236.53;7373862;19;20407;-40
2023/10/20 11:03:48;;;;;;;9.17;4.50;;;;;;;4.70;100.00;99236.53;7395753;19;20767;-41
2023/10/20 11:06:18;;;;;;;8.73;4.50;;;;;;;4.72;100.00;99239.16;7372433;19;20443;-42
2023/10/20 11:08:47;;;;;;;25.90;11.63;;;;;;;4.75;100.00;99243.50;7399167;19;20421;-40
2023/10/20 11:11:17;;;;;;;10.37;5.57;;;;;;;4.73;100.00;99216.22;7372120;19;20974;-40
2023/10/20 11:13:47;;;;;;;6.67;4.17;;;;;;;4.73;100.00;99231.53;7395216;19;20759;-40
2023/10/20 11:16:17;;;;;;;6.83;4.13;;;;;;;4.73;100.00;99216.22;7372243;19;20431;-41
2023/10/20 11:18:50;;;;;;;15.60;7.67;;;;;;;4.80;100.00;99217.34;7395393;19;20792;-44
2023/10/20 11:21:20;;;;;;;9.00;5.47;;;;;;;4.80;100.00;99198.56;7373038;19;20403;-42
2023/10/20 11:23:51;;;;;;;68.47;23.57;;;;;;;4.82;100.00;99190.16;7396014;19;20422;-40
2023/10/20 11:26:24;;;;;;;15.30;7.63;;;;;;;4.81;100.00;99201.19;7365301;19;20455;-42
2023/10/20 11:28:54;;;;;;;9.47;4.47;;;;;;;4.86;100.00;99191.16;7396028;19;20399;-41
2023/10/20 11:31:24;;;;;;;23.93;11.13;;;;;;;4.86;100.00;99186.03;7372513;19;21421;-41
2023/10/20 11:33:56;;;;;;;10.17;5.33;;;;;;;4.94;100.00;99189.78;7390483;19;20399;-42
2023/10/20 11:36:26;;;;;;;5.97;3.90;;;;;;;4.86;100.00;99186.03;7373314;19;20485;-40
2023/10/20 11:38:55;;;;;;;12.40;6.07;;;;;;;4.87;100.00;99164.78;7395620;19;20406;-42
2023/10/20 11:41:25;;;;;;;9.37;4.00;;;;;;;4.88;100.00;99158.88;7367877;19;20431;-42
2023/10/20 11:43:55;;;;;;;21.50;9.60;;;;;;;4.86;100.00;99150.25;7389127;19;20419;-42
2023/10/20 11:46:24;;;;;;;19.00;8.17;;;;;;;4.84;100.00;99155.31;7371437;19;20435;-40
2023/10/20 11:48:56;;;;;;;7.50;4.53;;;;;;;4.86;100.00;99150.25;7396785;19;20403;-41
2023/10/20 11:51:26;;;;;;;8.47;4.47;;;;;;;4.85;100.00;99140.84;7369241;19;20416;-42
2023/10/20 11:53:56;;;;;;;9.73;5.10;;;;;;;4.86;100.00;99130.69;7395364;19;20474;-42
2023/10/20 11:56:25;;;;;;;6.73;3.80;;;;;;;4.92;100.00;99129.19;7370588;19;20431;-42
2023/10/20 11:58:59;;;;;;;10.53;4.73;;;;;;;4.93;100.00;99129.22;7394149;19;20408;-43
2023/10/20 12:01:28;;;;;;;5.70;3.10;;;;;;;4.88;100.00;99120.53;7370584;19;21049;-42
2023/10/20 12:04:02;;;;;;;11.13;4.60;;;;;;;4.84;100.00;99118.66;7395350;19;20411;-42
2023/10/20 12:06:32;;;;;;;6.10;2.97;;;;;;;4.85;100.00;99112.72;7370271;19;21144;-41